createdAt,value
2022-12-05T00:00:00.357Z,10.8
2022-12-05T00:05:00.386Z,9.7
2022-12-05T00:10:00.897Z,11.9
2022-12-05T00:15:00.316Z,12.2
2022-12-05T00:20:01.287Z,7.9
2022-12-05T00:25:00.353Z,6.5
2022-12-05T00:30:00.963Z,12.6
2022-12-05T00:35:00.369Z,10.4
2022-12-05T00:40:00.932Z,11.9
2022-12-05T00:45:00.336Z,11.2
2022-12-05T00:50:00.737Z,10.1
2022-12-05T00:55:00.373Z,7.9
2022-12-05T01:00:01.455Z,13.7
2022-12-05T01:05:00.386Z,12.2
2022-12-05T01:10:00.375Z,8.6
2022-12-05T01:15:00.357Z,16.2
2022-12-05T01:20:00.580Z,7.9
2022-12-05T01:25:00.373Z,10.1
2022-12-05T01:30:00.485Z,11.5
2022-12-05T01:35:00.354Z,10.8
2022-12-05T01:40:00.425Z,16.6
2022-12-05T01:45:00.438Z,15.5
2022-12-05T01:50:01.074Z,18.4
2022-12-05T01:55:00.349Z,10.8
2022-12-05T02:00:00.741Z,16.2
2022-12-05T02:05:00.329Z,12.6
2022-12-05T02:10:00.633Z,12.6
2022-12-05T02:15:00.386Z,11.2
2022-12-05T02:20:00.993Z,8.3
2022-12-05T02:25:00.294Z,14.4
2022-12-05T02:30:00.946Z,14.4
2022-12-05T02:35:00.315Z,15.1
2022-12-05T02:40:01.159Z,10.8
2022-12-05T02:45:00.298Z,13.0
2022-12-05T02:50:01.094Z,14.4
2022-12-05T02:55:00.553Z,9.7
2022-12-05T03:00:00.764Z,12.2
2022-12-05T03:05:00.344Z,9.7
2022-12-05T03:10:01.289Z,10.8
2022-12-05T03:15:00.579Z,12.2
2022-12-05T03:20:01.458Z,10.4
2022-12-05T03:25:00.364Z,5.8
2022-12-05T03:30:01.166Z,10.4
2022-12-05T03:35:00.365Z,9.7
2022-12-05T03:40:00.568Z,12.6
2022-12-05T03:45:00.364Z,15.8
2022-12-05T03:50:00.981Z,6.5
2022-12-05T03:55:00.415Z,11.9
2022-12-05T04:00:01.237Z,13.3
2022-12-05T04:05:00.483Z,11.5
2022-12-05T04:10:01.540Z,13.7
2022-12-05T04:15:00.349Z,11.9
2022-12-05T04:20:01.228Z,10.8
2022-12-05T04:25:00.383Z,8.6
2022-12-05T04:30:01.296Z,10.8
2022-12-05T04:35:00.465Z,11.9
2022-12-05T04:40:01.013Z,9.4
2022-12-05T04:45:00.486Z,10.8
2022-12-05T04:50:00.872Z,11.2
2022-12-05T04:55:00.343Z,11.2
2022-12-05T05:00:01.368Z,8.6
2022-12-05T05:05:00.381Z,11.5
2022-12-05T05:10:01.142Z,9.0
2022-12-05T05:15:00.375Z,9.4
2022-12-05T05:20:00.833Z,8.3
2022-12-05T05:25:00.338Z,9.7
2022-12-05T05:30:00.837Z,9.4
2022-12-05T05:35:00.337Z,7.2
2022-12-05T05:40:10.852Z,9.4
2022-12-05T05:45:00.330Z,7.6
2022-12-05T05:50:01.444Z,10.8
2022-12-05T05:55:00.676Z,7.2
2022-12-05T06:00:01.633Z,14.4
2022-12-05T06:05:00.370Z,14.4
2022-12-05T06:10:01.579Z,9.7
2022-12-05T06:15:00.378Z,7.9
2022-12-05T06:20:01.290Z,7.2
2022-12-05T06:25:00.342Z,15.5
2022-12-05T06:30:01.384Z,11.2
2022-12-05T06:35:00.422Z,7.9
2022-12-05T06:40:01.325Z,8.3
2022-12-05T06:45:00.365Z,6.1
2022-12-05T06:50:00.878Z,10.1
2022-12-05T06:55:00.361Z,9.4
2022-12-05T07:00:00.734Z,10.8
2022-12-05T07:05:00.410Z,4.7
2022-12-05T07:10:01.269Z,5.8
2022-12-05T07:15:00.384Z,8.3
2022-12-05T07:20:01.272Z,7.6
2022-12-05T07:25:00.319Z,12.2
2022-12-05T07:30:01.609Z,5.4
2022-12-05T07:35:00.403Z,11.5
2022-12-05T07:40:01.420Z,5.8
2022-12-05T07:45:00.329Z,6.5
2022-12-05T07:50:01.262Z,9.7
2022-12-05T07:55:00.321Z,11.9
2022-12-05T08:00:01.225Z,11.2
2022-12-05T08:05:00.337Z,6.8
2022-12-05T08:10:01.248Z,8.3
2022-12-05T08:15:00.421Z,9.4
2022-12-05T08:20:00.905Z,6.8
2022-12-05T08:25:00.373Z,5.4
2022-12-05T08:30:01.027Z,5.0
2022-12-05T08:35:00.545Z,4.7
2022-12-05T08:40:00.768Z,10.1
2022-12-05T08:45:01.170Z,8.3
2022-12-05T08:50:01.048Z,6.1
2022-12-05T08:55:01.189Z,10.1
2022-12-05T09:00:00.450Z,8.3
2022-12-05T09:05:27.982Z,9.4
2022-12-05T09:10:00.359Z,4.7
2022-12-05T09:15:01.033Z,6.8
2022-12-05T09:20:00.368Z,8.3
2022-12-05T09:25:01.020Z,11.2
2022-12-05T09:30:00.404Z,8.6
2022-12-05T09:35:01.305Z,6.1
2022-12-05T09:40:00.417Z,6.8
2022-12-05T09:45:01.511Z,8.3
2022-12-05T09:50:00.463Z,7.6
2022-12-05T09:55:00.589Z,6.5
2022-12-05T10:00:00.393Z,5.4
2022-12-05T10:05:01.656Z,8.3
2022-12-05T10:10:00.445Z,6.1
2022-12-05T10:15:01.078Z,5.0
2022-12-05T10:20:00.401Z,7.6
2022-12-05T10:25:01.453Z,10.8
2022-12-05T10:30:00.410Z,2.9
2022-12-05T10:35:00.808Z,6.1
2022-12-05T10:40:00.347Z,3.2
2022-12-05T10:45:01.477Z,2.2
2022-12-05T10:50:00.384Z,5.0
2022-12-05T10:55:00.863Z,5.0
2022-12-05T11:00:01.264Z,3.6
2022-12-05T11:05:01.180Z,3.2
2022-12-05T11:10:00.431Z,5.0
2022-12-05T11:15:01.428Z,2.2
2022-12-05T11:20:00.368Z,2.5
2022-12-05T11:25:00.947Z,2.5
2022-12-05T11:30:00.403Z,3.2
2022-12-05T11:35:01.251Z,2.2
2022-12-05T11:40:00.375Z,6.5
2022-12-05T11:45:01.357Z,0.0
2022-12-05T11:50:00.422Z,2.2
2022-12-05T11:55:08.829Z,2.5
2022-12-05T12:00:01.211Z,1.4
2022-12-05T12:05:01.062Z,2.2
2022-12-05T12:10:01.901Z,1.4
2022-12-05T12:15:01.543Z,0.0
2022-12-05T12:20:00.420Z,2.5
2022-12-05T12:25:01.299Z,2.9
2022-12-05T12:30:00.400Z,4.0
2022-12-05T12:35:01.422Z,3.6
2022-12-05T12:40:00.366Z,2.2
2022-12-05T12:45:01.790Z,1.8
2022-12-05T12:50:00.364Z,0.0
2022-12-05T12:55:10.301Z,0.0
2022-12-05T13:00:00.884Z,4.0
2022-12-05T13:05:01.374Z,5.0
2022-12-05T13:10:00.345Z,0.0
2022-12-05T13:15:01.520Z,1.8
2022-12-05T13:20:00.370Z,3.2
2022-12-05T13:25:01.242Z,3.6
2022-12-05T13:30:01.846Z,1.8
2022-12-05T13:35:00.353Z,1.8
2022-12-05T13:40:01.232Z,2.5
2022-12-05T13:45:00.369Z,0.0
2022-12-05T13:50:01.253Z,1.4
2022-12-05T13:55:00.360Z,1.8
2022-12-05T14:00:01.987Z,2.2
2022-12-05T14:05:00.357Z,2.9
2022-12-05T14:10:01.382Z,0.0
2022-12-05T14:15:00.352Z,2.2
2022-12-05T14:20:01.330Z,1.8
2022-12-05T14:25:00.356Z,0.0
2022-12-05T14:30:01.348Z,0.0
2022-12-05T14:35:00.347Z,0.0
2022-12-05T14:40:01.704Z,0.0
2022-12-05T14:45:00.404Z,0.0
2022-12-05T14:50:01.503Z,0.0
2022-12-05T14:55:00.385Z,0.0
2022-12-05T15:00:01.746Z,0.0
2022-12-05T15:05:00.464Z,0.0
2022-12-05T15:10:01.500Z,0.0
2022-12-05T15:15:01.422Z,1.8
2022-12-05T15:20:01.300Z,2.2
2022-12-05T15:25:01.312Z,0.0
2022-12-05T15:30:00.381Z,0.0
2022-12-05T15:35:01.498Z,0.0
2022-12-05T15:40:00.421Z,0.0
2022-12-05T15:45:00.985Z,0.0
2022-12-05T15:50:01.180Z,0.0
2022-12-05T15:55:00.350Z,0.0
2022-12-05T16:00:01.608Z,0.0
2022-12-05T16:05:00.323Z,0.0
2022-12-05T16:10:01.698Z,0.0
2022-12-05T16:15:01.876Z,0.0
2022-12-05T16:20:01.195Z,0.0
2022-12-05T16:25:00.365Z,0.0
2022-12-05T16:30:00.865Z,0.0
2022-12-05T16:35:00.364Z,0.0
2022-12-05T16:40:01.470Z,0.0
2022-12-05T16:45:01.330Z,0.0
2022-12-05T16:50:00.417Z,0.0
2022-12-05T16:55:01.472Z,0.0
2022-12-05T17:00:00.383Z,0.0
2022-12-05T17:05:00.928Z,0.0
2022-12-05T17:10:00.359Z,0.0
2022-12-05T17:15:01.680Z,1.8
2022-12-05T17:20:00.396Z,0.0
2022-12-05T17:25:01.320Z,0.0
2022-12-05T17:30:01.333Z,0.0
2022-12-05T17:35:07.212Z,0.0
2022-12-05T17:40:01.302Z,0.0
2022-12-05T17:45:01.653Z,0.0
2022-12-05T17:50:01.465Z,2.2
2022-12-05T17:55:01.349Z,0.0
2022-12-05T18:00:00.638Z,0.0
2022-12-05T18:05:01.131Z,0.0
2022-12-05T18:10:00.992Z,0.0
2022-12-05T18:15:01.365Z,2.9
2022-12-05T18:20:00.925Z,2.2
2022-12-05T18:25:01.804Z,3.2
2022-12-05T18:30:00.511Z,0.0
2022-12-05T18:35:01.496Z,2.2
2022-12-05T18:40:00.436Z,2.9
2022-12-05T18:45:01.580Z,2.9
2022-12-05T18:50:00.404Z,3.2
2022-12-05T18:55:18.441Z,1.8
2022-12-05T19:00:00.417Z,1.8
2022-12-05T19:05:01.259Z,0.0
2022-12-05T19:10:00.346Z,0.0
2022-12-05T19:15:01.853Z,0.0
2022-12-05T19:20:00.387Z,2.5
2022-12-05T19:25:01.672Z,2.9
2022-12-05T19:30:10.420Z,4.3
2022-12-05T19:35:01.221Z,3.2
2022-12-05T19:40:01.235Z,2.5
2022-12-05T19:45:13.558Z,1.8
2022-12-05T19:50:01.282Z,2.5
2022-12-05T19:55:00.421Z,3.6
2022-12-05T20:00:01.347Z,0.0
2022-12-05T20:05:00.485Z,2.5
2022-12-05T20:10:01.360Z,5.0
2022-12-05T20:15:00.346Z,5.8
2022-12-05T20:20:01.046Z,5.8
2022-12-05T20:25:00.338Z,4.7
2022-12-05T20:30:01.199Z,2.5
2022-12-05T20:35:00.332Z,2.2
2022-12-05T20:40:01.082Z,4.3
2022-12-05T20:45:00.333Z,2.9
2022-12-05T20:50:01.301Z,2.2
2022-12-05T20:55:00.381Z,5.0
2022-12-05T21:00:01.423Z,6.1
2022-12-05T21:05:00.310Z,2.5
2022-12-05T21:10:08.675Z,4.7
2022-12-05T21:15:00.379Z,10.8
2022-12-05T21:20:01.511Z,4.0
2022-12-05T21:25:00.351Z,2.5
2022-12-05T21:30:01.118Z,6.5
2022-12-05T21:35:00.325Z,5.0
2022-12-05T21:40:01.494Z,3.2
2022-12-05T21:45:01.131Z,5.0
2022-12-05T21:50:01.586Z,4.0
2022-12-05T21:55:00.372Z,4.7
2022-12-05T22:00:01.330Z,6.5
2022-12-05T22:05:00.332Z,5.4
2022-12-05T22:10:01.755Z,3.6
2022-12-05T22:15:00.354Z,4.7
2022-12-05T22:20:01.701Z,9.4
2022-12-05T22:25:01.383Z,4.7
2022-12-05T22:30:01.092Z,4.7
2022-12-05T22:35:04.702Z,7.2
2022-12-05T22:40:01.811Z,5.0
2022-12-05T22:45:00.320Z,8.6
2022-12-05T22:50:01.925Z,3.2
2022-12-05T22:55:01.315Z,9.4
2022-12-05T23:00:01.516Z,0.0
2022-12-05T23:05:00.324Z,7.6
2022-12-05T23:10:03.972Z,2.2
2022-12-05T23:15:00.412Z,5.0
2022-12-05T23:20:01.306Z,4.3
2022-12-05T23:25:00.335Z,3.2
2022-12-05T23:30:01.392Z,6.5
2022-12-05T23:35:00.328Z,4.3
2022-12-05T23:40:01.600Z,5.0
2022-12-05T23:45:00.531Z,6.5
2022-12-05T23:50:01.231Z,4.7
2022-12-05T23:55:00.318Z,6.5
